| time (UTC) | temp F | wind direction | speed MPH | gust MPH | rain 1hr in | rain 24hr in | rain mn in | humidity % | barometer mb |
| 20260504050329 | 52 | 143 | 1.0 | 2.0 | 0.00 | 0.00 | 0.00 | 6 | 984.6 |
| 20260504045830 | 53 | 125 | 1.0 | 2.0 | 0.00 | 0.00 | 0.00 | 6 | 984.6 |
| 20260504045330 | 53 | 113 | 0.0 | 2.0 | 0.00 | 0.00 | 0.00 | 6 | 984.7 |
| 20260504044830 | 53 | 317 | 0.0 | 2.0 | 0.00 | 0.00 | 0.00 | 6 | 984.7 |
| 20260504044330 | 53 | 303 | 1.0 | 3.0 | 0.00 | 0.00 | 0.00 | 6 | 984.7 |
| 20260504043830 | 53 | 305 | 1.0 | 2.0 | 0.00 | 0.00 | 0.00 | 6 | 984.7 |
| 20260504043330 | 53 | 294 | 0.0 | 2.0 | 0.00 | 0.00 | 0.00 | 6 | 984.7 |
| 20260504042830 | 54 | 67 | 0.0 | 1.0 | 0.00 | 0.00 | 0.00 | 6 | 984.7 |
| 20260504042330 | 54 | 173 | 1.0 | 2.0 | 0.00 | 0.00 | 0.00 | 6 | 984.7 |
| 20260504041830 | 54 | 150 | 0.0 | 2.0 | 0.00 | 0.00 | 0.00 | 6 | 984.8 |
| 20260504041330 | 54 | 189 | 1.0 | 2.0 | 0.00 | 0.00 | 0.00 | 6 | 984.9 |
| 20260504040830 | 54 | 338 | 1.0 | 2.0 | 0.00 | 0.00 | 0.00 | 6 | 984.9 |
| 20260504040330 | 55 | 136 | 1.0 | 2.0 | 0.00 | 0.00 | 0.00 | 6 | 984.9 |
| 20260504035830 | 55 | 138 | 2.0 | 2.0 | 0.00 | 0.00 | 0.00 | 6 | 984.9 |
| 20260504035330 | 55 | 133 | 1.0 | 2.0 | 0.00 | 0.00 | 0.00 | 6 | 984.9 |
| 20260504034830 | 55 | 133 | 2.0 | 3.0 | 0.00 | 0.00 | 0.00 | 6 | 984.9 |
| 20260504034330 | 55 | 220 | 1.0 | 2.0 | 0.00 | 0.00 | 0.00 | 6 | 985.0 |
| 20260504033830 | 55 | 153 | 1.0 | 2.0 | 0.00 | 0.00 | 0.00 | 6 | 985.1 |
| 20260504033330 | 56 | 330 | 1.0 | 2.0 | 0.00 | 0.00 | 0.00 | 6 | 985.1 |
| 20260504032829 | 56 | 333 | 1.0 | 3.0 | 0.00 | 0.00 | 0.00 | 6 | 985.1 |
| 20260504032329 | 56 | 265 | 2.0 | 3.0 | 0.00 | 0.00 | 0.00 | 6 | 985.1 |
| 20260504031829 | 56 | 296 | 1.0 | 4.0 | 0.00 | 0.00 | 0.00 | 6 | 985.1 |
| 20260504031329 | 56 | 307 | 2.0 | 4.0 | 0.00 | 0.00 | 0.00 | 6 | 985.1 |
| 20260504030829 | 56 | 318 | 2.0 | 4.0 | 0.00 | 0.00 | 0.00 | 6 | 985.1 |
| 20260504030329 | 56 | 304 | 3.0 | 5.0 | 0.00 | 0.00 | 0.00 | 6 | 985.2 |
| 20260504025829 | 56 | 329 | 2.0 | 4.0 | 0.00 | 0.00 | 0.00 | 6 | 985.2 |
| 20260504025329 | 56 | 315 | 1.0 | 2.0 | 0.00 | 0.00 | 0.00 | 6 | 985.2 |
| 20260504024829 | 57 | 315 | 1.0 | 1.0 | 0.00 | 0.00 | 0.00 | 6 | 985.2 |
| 20260504024329 | 57 | 73 | 1.0 | 2.0 | 0.00 | 0.00 | 0.00 | 5 | 985.2 |
| 20260504023829 | 57 | 305 | 1.0 | 2.0 | 0.00 | 0.00 | 0.00 | 5 | 985.1 |
| 20260504023329 | 58 | 294 | 2.0 | 4.0 | 0.00 | 0.00 | 0.00 | 5 | 985.1 |
| 20260504022829 | 58 | 281 | 3.0 | 4.0 | 0.00 | 0.00 | 0.00 | 5 | 985.1 |
| 20260504022329 | 58 | 277 | 3.0 | 5.0 | 0.00 | 0.00 | 0.00 | 5 | 985.1 |
| 20260504021829 | 58 | 274 | 3.0 | 6.0 | 0.00 | 0.00 | 0.00 | 5 | 985.1 |
| 20260504021329 | 59 | 278 | 3.0 | 5.0 | 0.00 | 0.00 | 0.00 | 5 | 985.2 |
| 20260504020829 | 59 | 264 | 4.0 | 6.0 | 0.00 | 0.00 | 0.00 | 5 | 985.1 |
| 20260504020329 | 59 | 277 | 4.0 | 6.0 | 0.00 | 0.00 | 0.00 | 5 | 984.9 |
| 20260504015829 | 59 | 288 | 4.0 | 6.0 | 0.00 | 0.00 | 0.00 | 5 | 984.9 |
| 20260504015329 | 59 | 271 | 4.0 | 7.0 | 0.00 | 0.00 | 0.00 | 5 | 984.8 |
| 20260504014829 | 59 | 306 | 3.0 | 7.0 | 0.00 | 0.00 | 0.00 | 5 | 984.7 |
| 20260504014329 | 60 | 289 | 4.0 | 7.0 | 0.00 | 0.00 | 0.00 | 5 | 984.7 |
| 20260504013829 | 60 | 299 | 3.0 | 5.0 | 0.00 | 0.00 | 0.00 | 5 | 984.7 |
| 20260504013329 | 60 | 140 | 2.0 | 3.0 | 0.00 | 0.00 | 0.00 | 5 | 984.7 |
| 20260504012829 | 60 | 305 | 3.0 | 4.0 | 0.00 | 0.00 | 0.00 | 5 | 984.4 |
| 20260504012329 | 61 | 306 | 3.0 | 5.0 | 0.00 | 0.00 | 0.00 | 5 | 984.4 |
| 20260504011829 | 61 | 310 | 3.0 | 6.0 | 0.00 | 0.00 | 0.00 | 5 | 984.2 |
| 20260504011329 | 61 | 292 | 3.0 | 6.0 | 0.00 | 0.00 | 0.00 | 5 | 984.2 |
| 20260504010829 | 61 | 332 | 2.0 | 4.0 | 0.00 | 0.00 | 0.00 | 5 | 984.3 |
| 20260504010329 | 62 | 209 | 3.0 | 5.0 | 0.00 | 0.00 | 0.00 | 5 | 984.4 |
| 20260504005830 | 62 | 107 | 3.0 | 5.0 | 0.00 | 0.00 | 0.00 | 5 | 984.4 |
| 20260504005330 | 62 | 359 | 3.0 | 6.0 | 0.00 | 0.00 | 0.00 | 5 | 984.4 |
| 20260504004830 | 62 | 64 | 3.0 | 7.0 | 0.00 | 0.00 | 0.00 | 5 | 984.4 |
| 20260504004330 | 63 | 282 | 3.0 | 6.0 | 0.00 | 0.00 | 0.00 | 5 | 984.2 |
| 20260504003830 | 63 | 322 | 4.0 | 8.0 | 0.00 | 0.00 | 0.00 | 5 | 984.2 |
| 20260504003330 | 63 | 354 | 3.0 | 6.0 | 0.00 | 0.00 | 0.00 | 5 | 984.3 |
| 20260504002830 | 63 | 327 | 2.0 | 5.0 | 0.00 | 0.00 | 0.00 | 5 | 984.4 |
| 20260504002330 | 64 | 292 | 3.0 | 6.0 | 0.00 | 0.00 | 0.00 | 4 | 984.4 |
| 20260504001830 | 64 | 285 | 3.0 | 5.0 | 0.00 | 0.00 | 0.00 | 4 | 984.4 |
| 20260504001330 | 64 | 287 | 5.0 | 8.0 | 0.00 | 0.00 | 0.00 | 4 | 984.4 |
| 20260504000830 | 64 | 288 | 5.0 | 8.0 | 0.00 | 0.00 | 0.00 | 4 | 984.4 |
| 20260504000330 | 65 | 278 | 8.0 | 11.0 | 0.00 | 0.00 | 0.00 | 4 | 984.4 |
| 20260503235830 | 65 | 284 | 7.0 | 15.0 | 0.00 | 0.00 | 0.00 | 4 | 984.4 |
| 20260503235330 | 65 | 261 | 7.0 | 11.0 | 0.00 | 0.00 | 0.00 | 4 | 984.4 |
| 20260503234830 | 65 | 259 | 9.0 | 15.0 | 0.00 | 0.00 | 0.00 | 4 | 984.4 |
| 20260503234330 | 65 | 281 | 9.0 | 15.0 | 0.00 | 0.00 | 0.00 | 4 | 984.4 |
| 20260503233830 | 65 | 310 | 7.0 | 11.0 | 0.00 | 0.00 | 0.00 | 4 | 984.4 |
| 20260503233330 | 65 | 258 | 8.0 | 13.0 | 0.00 | 0.00 | 0.00 | 4 | 984.4 |
| 20260503232830 | 65 | 283 | 7.0 | 11.0 | 0.00 | 0.00 | 0.00 | 4 | 984.4 |
| 20260503232329 | 65 | 305 | 8.0 | 15.0 | 0.00 | 0.00 | 0.00 | 4 | 984.4 |
| 20260503231830 | 65 | 277 | 7.0 | 13.0 | 0.00 | 0.00 | 0.00 | 4 | 984.7 |
| 20260503231329 | 66 | 280 | 8.0 | 17.0 | 0.00 | 0.00 | 0.00 | 4 | 984.7 |
| 20260503230829 | 66 | 272 | 9.0 | 15.0 | 0.00 | 0.00 | 0.00 | 4 | 984.7 |
| 20260503230329 | 65 | 269 | 10.0 | 15.0 | 0.00 | 0.00 | 0.00 | 4 | 984.9 |
| 20260503225829 | 65 | 238 | 7.0 | 12.0 | 0.00 | 0.00 | 0.00 | 4 | 984.9 |
| 20260503225329 | 65 | 268 | 9.0 | 13.0 | 0.00 | 0.00 | 0.00 | 4 | 984.9 |
| 20260503224829 | 65 | 284 | 10.0 | 15.0 | 0.00 | 0.00 | 0.00 | 4 | 984.9 |
| 20260503224329 | 65 | 277 | 8.0 | 14.0 | 0.00 | 0.00 | 0.00 | 4 | 984.9 |
| 20260503223829 | 65 | 282 | 9.0 | 14.0 | 0.00 | 0.00 | 0.00 | 4 | 984.9 |
| 20260503223329 | 65 | 274 | 10.0 | 15.0 | 0.00 | 0.00 | 0.00 | 4 | 984.9 |
| 20260503222829 | 65 | 283 | 10.0 | 17.0 | 0.00 | 0.00 | 0.00 | 4 | 984.7 |
| 20260503222329 | 66 | 300 | 11.0 | 19.0 | 0.00 | 0.00 | 0.00 | 4 | 984.7 |
| 20260503221829 | 66 | 273 | 10.0 | 14.0 | 0.00 | 0.00 | 0.00 | 4 | 984.7 |
| 20260503221329 | 65 | 301 | 11.0 | 16.0 | 0.00 | 0.00 | 0.00 | 4 | 984.7 |
| 20260503220829 | 64 | 290 | 9.0 | 15.0 | 0.00 | 0.00 | 0.00 | 4 | 984.7 |
| 20260503220329 | 64 | 242 | 10.0 | 18.0 | 0.00 | 0.00 | 0.00 | 4 | 984.7 |
| 20260503215829 | 64 | 290 | 8.0 | 15.0 | 0.00 | 0.00 | 0.00 | 4 | 984.7 |
| 20260503215329 | 63 | 296 | 11.0 | 15.0 | 0.00 | 0.00 | 0.00 | 4 | 985.1 |
| 20260503214829 | 63 | 282 | 10.0 | 13.0 | 0.00 | 0.00 | 0.00 | 4 | 985.1 |
| 20260503214329 | 63 | 275 | 11.0 | 19.0 | 0.00 | 0.00 | 0.00 | 4 | 985.0 |
| 20260503213829 | 63 | 293 | 11.0 | 18.0 | 0.00 | 0.00 | 0.00 | 4 | 984.9 |
| 20260503213329 | 63 | 320 | 9.0 | 17.0 | 0.00 | 0.00 | 0.00 | 4 | 984.9 |
| 20260503212829 | 63 | 275 | 10.0 | 15.0 | 0.00 | 0.00 | 0.00 | 4 | 985.1 |
| 20260503212329 | 63 | 282 | 10.0 | 17.0 | 0.00 | 0.00 | 0.00 | 4 | 985.1 |
| 20260503211829 | 64 | 257 | 8.0 | 15.0 | 0.00 | 0.00 | 0.00 | 4 | 985.6 |
| 20260503211329 | 64 | 56 | 5.0 | 11.0 | 0.00 | 0.00 | 0.00 | 4 | 985.6 |
| 20260503210829 | 64 | 242 | 6.0 | 13.0 | 0.00 | 0.00 | 0.00 | 4 | 985.7 |
| 20260503210329 | 63 | 303 | 8.0 | 16.0 | 0.00 | 0.00 | 0.00 | 4 | 985.9 |
| 20260503205830 | 63 | 280 | 7.0 | 12.0 | 0.00 | 0.00 | 0.00 | 4 | 985.9 |
| 20260503205330 | 63 | 285 | 10.0 | 16.0 | 0.00 | 0.00 | 0.00 | 4 | 986.2 |
| 20260503204830 | 63 | 322 | 11.0 | 14.0 | 0.00 | 0.00 | 0.00 | 4 | 986.2 |
| 20260503204330 | 63 | 321 | 9.0 | 17.0 | 0.00 | 0.00 | 0.00 | 4 | 986.2 |
| 20260503203830 | 63 | 256 | 13.0 | 21.0 | 0.00 | 0.00 | 0.00 | 4 | 986.2 |
| 20260503203330 | 64 | 307 | 11.0 | 17.0 | 0.00 | 0.00 | 0.00 | 4 | 986.2 |
| 20260503202830 | 64 | 285 | 8.0 | 14.0 | 0.00 | 0.00 | 0.00 | 4 | 986.2 |
| 20260503202330 | 64 | 215 | 11.0 | 20.0 | 0.00 | 0.00 | 0.00 | 4 | 986.2 |
| 20260503201830 | 65 | 358 | 8.0 | 18.0 | 0.00 | 0.00 | 0.00 | 4 | 986.3 |
| 20260503201330 | 64 | 334 | 6.0 | 12.0 | 0.00 | 0.00 | 0.00 | 4 | 986.4 |
| 20260503200830 | 64 | 253 | 7.0 | 14.0 | 0.00 | 0.00 | 0.00 | 4 | 986.6 |
| 20260503200330 | 63 | 248 | 6.0 | 8.0 | 0.00 | 0.00 | 0.00 | 4 | 987.1 |
| 20260503195830 | 63 | 325 | 7.0 | 10.0 | 0.00 | 0.00 | 0.00 | 4 | 987.1 |
| 20260503195330 | 63 | 285 | 8.0 | 17.0 | 0.00 | 0.00 | 0.00 | 4 | 987.2 |
| 20260503194830 | 64 | 290 | 7.0 | 17.0 | 0.00 | 0.00 | 0.00 | 4 | 987.2 |
| 20260503194330 | 65 | 275 | 8.0 | 17.0 | 0.00 | 0.00 | 0.00 | 4 | 987.4 |
| 20260503193830 | 66 | 127 | 7.0 | 13.0 | 0.00 | 0.00 | 0.00 | 4 | 987.7 |
| 20260503193330 | 65 | 290 | 9.0 | 18.0 | 0.00 | 0.00 | 0.00 | 4 | 987.7 |
| 20260503192830 | 65 | 258 | 7.0 | 12.0 | 0.00 | 0.00 | 0.00 | 4 | 987.9 |
| 20260503192330 | 65 | 260 | 7.0 | 11.0 | 0.00 | 0.00 | 0.00 | 4 | 987.9 |
| 20260503191829 | 64 | 272 | 8.0 | 19.0 | 0.00 | 0.00 | 0.00 | 4 | 988.1 |
| 20260503191329 | 63 | 17 | 4.0 | 6.0 | 0.00 | 0.00 | 0.00 | 4 | 988.4 |
| 20260503190829 | 62 | 304 | 8.0 | 18.0 | 0.00 | 0.00 | 0.00 | 4 | 988.4 |
| 20260503190329 | 62 | 245 | 9.0 | 15.0 | 0.00 | 0.00 | 0.00 | 4 | 988.9 |
| 20260503185829 | 62 | 291 | 9.0 | 15.0 | 0.00 | 0.00 | 0.00 | 4 | 988.9 |
| 20260503185329 | 61 | 280 | 10.0 | 16.0 | 0.00 | 0.00 | 0.00 | 4 | 989.4 |
| 20260503184829 | 60 | 271 | 10.0 | 19.0 | 0.00 | 0.00 | 0.00 | 4 | 989.4 |
| 20260503184329 | 60 | 276 | 10.0 | 19.0 | 0.00 | 0.00 | 0.00 | 4 | 989.6 |
| 20260503183829 | 60 | 256 | 9.0 | 16.0 | 0.00 | 0.00 | 0.00 | 4 | 989.7 |
| 20260503183329 | 60 | 260 | 9.0 | 15.0 | 0.00 | 0.00 | 0.00 | 4 | 989.7 |
| 20260503182829 | 60 | 263 | 10.0 | 16.0 | 0.00 | 0.00 | 0.00 | 4 | 989.9 |
| 20260503182329 | 60 | 265 | 11.0 | 17.0 | 0.00 | 0.00 | 0.00 | 4 | 989.9 |
| 20260503181829 | 60 | 271 | 10.0 | 16.0 | 0.00 | 0.00 | 0.00 | 4 | 989.8 |
| 20260503181329 | 61 | 265 | 10.0 | 14.0 | 0.00 | 0.00 | 0.00 | 4 | 989.7 |
| 20260503180829 | 61 | 269 | 11.0 | 18.0 | 0.00 | 0.00 | 0.00 | 4 | 989.7 |
| 20260503180329 | 61 | 292 | 8.0 | 14.0 | 0.00 | 0.00 | 0.00 | 4 | 989.7 |
| 20260503175829 | 61 | 267 | 8.0 | 11.0 | 0.00 | 0.00 | 0.00 | 4 | 989.7 |
| 20260503175329 | 62 | 289 | 10.0 | 18.0 | 0.00 | 0.00 | 0.00 | 4 | 989.9 |
| 20260503174829 | 62 | 268 | 9.0 | 17.0 | 0.00 | 0.00 | 0.00 | 4 | 989.9 |
| 20260503174329 | 63 | 268 | 10.0 | 19.0 | 0.00 | 0.00 | 0.00 | 4 | 990.0 |
| 20260503173829 | 63 | 282 | 11.0 | 16.0 | 0.00 | 0.00 | 0.00 | 4 | 990.1 |
| 20260503173329 | 63 | 283 | 11.0 | 17.0 | 0.00 | 0.00 | 0.00 | 4 | 990.1 |
| 20260503172829 | 63 | 281 | 10.0 | 12.0 | 0.00 | 0.00 | 0.00 | 4 | 990.4 |
| 20260503172329 | 64 | 270 | 11.0 | 16.0 | 0.00 | 0.00 | 0.00 | 4 | 990.4 |
| 20260503171829 | 64 | 294 | 9.0 | 17.0 | 0.00 | 0.00 | 0.00 | 3 | 990.5 |
| 20260503171329 | 65 | 297 | 7.0 | 13.0 | 0.00 | 0.00 | 0.00 | 4 | 990.6 |
| 20260503170829 | 64 | 340 | 9.0 | 17.0 | 0.00 | 0.00 | 0.00 | 4 | 990.6 |
| 20260503170329 | 63 | 298 | 8.0 | 13.0 | 0.00 | 0.00 | 0.00 | 4 | 990.7 |
| 20260503150829 | 0 | 0 | 0.0 | 0.0 | 0.00 | 0.00 | 0.00 | 100 | |
| 20260503150329 | 0 | 0 | 0.0 | 0.0 | 0.00 | 0.00 | 0.00 | 100 | |
| 20260503131329 | 51 | 301 | 4.0 | 7.0 | 0.00 | 0.00 | 0.00 | 6 | 993.4 |
| 20260503130829 | 50 | 284 | 4.0 | 7.0 | 0.00 | 0.00 | 0.00 | 6 | 993.5 |
| 20260503130329 | 50 | 265 | 6.0 | 9.0 | 0.00 | 0.00 | 0.00 | 6 | 993.6 |
| 20260503110329 | 41 | 318 | 2.0 | 3.0 | 0.00 | 0.00 | 0.00 | 6 | 993.1 |
| 20260503090329 | 41 | 282 | 3.0 | 4.0 | 0.00 | 0.00 | 0.00 | 6 | 993.4 |
| 20260503081330 | 40 | 145 | 1.0 | 2.0 | 0.00 | 0.00 | 0.00 | 6 | 993.4 |
| 20260503080830 | 40 | 110 | 1.0 | 2.0 | 0.00 | 0.00 | 0.00 | 6 | 993.4 |
| 20260503080330 | 40 | 241 | 0.0 | 2.0 | 0.00 | 0.00 | 0.00 | 6 | 993.4 |
| 20260503072830 | 40 | 123 | 1.0 | 2.0 | 0.00 | 0.00 | 0.00 | 6 | 993.6 |
| 20260503072330 | 40 | 236 | 1.0 | 2.0 | 0.00 | 0.00 | 0.00 | 6 | 993.6 |
| 20260503071830 | 40 | 219 | 0.0 | 1.0 | 0.00 | 0.00 | 0.00 | 6 | 993.6 |
| 20260503071329 | 40 | 211 | 1.0 | 2.0 | 0.00 | 0.00 | 0.00 | 6 | 993.6 |
| 20260503070830 | 40 | 167 | 1.0 | 1.0 | 0.00 | 0.00 | 0.00 | 6 | 993.6 |
| 20260503070330 | 40 | 157 | 0.0 | 2.0 | 0.00 | 0.00 | 0.00 | 6 | 993.7 |
| 20260503060329 | 41 | 0 | 0.0 | 0.0 | 0.00 | 0.00 | 0.00 | 6 | 994.1 |
| 20260503054829 | 41 | 0 | 0.0 | 0.0 | 0.00 | 0.00 | 0.00 | 6 | 994.1 |
| 20260503054329 | 41 | 0 | 0.0 | 0.0 | 0.00 | 0.00 | 0.00 | 6 | 994.0 |
| 20260503053829 | 41 | 276 | 0.0 | 2.0 | 0.00 | 0.00 | 0.00 | 6 | 993.9 |
| 20260503053329 | 41 | 0 | 0.0 | 0.0 | 0.00 | 0.00 | 0.00 | 6 | 993.9 |